Time;durP1;ratioP1;P1;durP2;ratioP2;P2;SDS_P1;SDS_P2;PMS_P1;PMS_P2;Temp;Humidity;BMP_temperature;BMP_pressure;BME280_temperature;BME280_humidity;BME280_pressure;Samples;Min_cycle;Max_cycle;Signal;HPM_P1;HPM_P2
2023/01/27 00:01:50;;;;;;;12.00;4.55;;;7.00;99.90;;;;;;4983090;28;20030;-86
2023/01/27 00:04:16;;;;;;;12.90;4.38;;;7.00;99.90;;;;;;4976480;28;20030;-86
2023/01/27 00:06:42;;;;;;;12.48;3.35;;;7.00;99.90;;;;;;4970169;28;20133;-86
2023/01/27 00:09:07;;;;;;;15.35;3.92;;;7.00;99.90;;;;;;4974959;28;20431;-87
2023/01/27 00:14:17;;;;;;;6.78;3.17;;;7.00;99.90;;;;;;4979495;28;20383;-86
2023/01/27 00:16:43;;;;;;;14.73;3.67;;;7.00;99.90;;;;;;4987418;28;20026;-86
2023/01/27 00:19:08;;;;;;;6.20;2.97;;;7.00;99.90;;;;;;4980721;28;20042;-87
2023/01/27 00:24:36;;;;;;;13.52;3.50;;;6.90;99.90;;;;;;4978841;28;20041;-85
2023/01/27 00:27:08;;;;;;;11.80;3.75;;;6.90;99.90;;;;;;4980189;28;20040;-87
2023/01/27 00:29:37;;;;;;;17.73;3.85;;;6.90;99.90;;;;;;4982681;28;20027;-87
2023/01/27 00:34:48;;;;;;;14.98;3.60;;;6.80;99.90;;;;;;4981226;28;20093;-87
2023/01/27 00:37:14;;;;;;;10.10;3.33;;;6.70;99.90;;;;;;4978237;28;20094;-87
2023/01/27 00:39:40;;;;;;;13.52;3.78;;;6.70;99.90;;;;;;4990578;28;20022;-86
2023/01/27 00:42:08;;;;;;;14.20;3.95;;;6.70;99.90;;;;;;4994865;28;20035;-87
2023/01/27 00:44:33;;;;;;;16.52;3.67;;;6.70;99.90;;;;;;4983875;28;20086;-87
2023/01/27 00:46:59;;;;;;;11.80;3.65;;;6.80;99.90;;;;;;4983628;28;20521;-87
2023/01/27 00:49:24;;;;;;;11.38;3.38;;;6.70;99.90;;;;;;4984959;28;20034;-86
2023/01/27 00:51:50;;;;;;;12.63;3.72;;;6.70;99.90;;;;;;4985298;28;20041;-87
2023/01/27 00:54:17;;;;;;;11.45;4.07;;;6.70;99.90;;;;;;4984753;28;20084;-86
2023/01/27 00:56:43;;;;;;;11.60;4.25;;;6.60;99.90;;;;;;4974025;28;20046;-86
2023/01/27 00:59:09;;;;;;;15.95;4.55;;;6.60;99.90;;;;;;4983891;28;20042;-87
2023/01/27 01:01:38;;;;;;;13.20;4.22;;;6.60;99.90;;;;;;4981367;28;20022;-87
2023/01/27 01:04:04;;;;;;;12.25;4.63;;;6.60;99.90;;;;;;4980933;28;20042;-86
2023/01/27 01:06:30;;;;;;;11.43;4.47;;;6.60;99.90;;;;;;4995137;28;20049;-86
2023/01/27 01:08:56;;;;;;;13.85;4.80;;;6.60;99.90;;;;;;4991160;28;20028;-87
2023/01/27 01:11:22;;;;;;;13.88;4.28;;;6.60;99.90;;;;;;4989147;28;20030;-89
2023/01/27 01:13:48;;;;;;;15.57;5.10;;;6.60;99.90;;;;;;4985449;28;20018;-87
2023/01/27 01:16:16;;;;;;;17.85;4.88;;;6.50;99.90;;;;;;4981644;28;20502;-86
2023/01/27 01:18:42;;;;;;;9.85;5.88;;;6.50;99.90;;;;;;4985818;28;20022;-86
2023/01/27 01:21:09;;;;;;;16.58;5.28;;;6.50;99.90;;;;;;5147617;22;20417;-90
2023/01/27 01:23:40;;;;;;;9.52;4.93;;;6.50;99.90;;;;;;5016363;28;20081;-90
2023/01/27 01:26:05;;;;;;;16.48;5.35;;;6.60;99.90;;;;;;5022284;28;20034;-86
2023/01/27 01:28:31;;;;;;;12.98;4.95;;;6.50;99.90;;;;;;5025305;28;20032;-90
2023/01/27 01:31:04;;;;;;;16.50;5.35;;;6.50;99.90;;;;;;5040498;28;20022;-89
2023/01/27 01:33:29;;;;;;;15.77;5.53;;;6.50;99.90;;;;;;5034279;28;20042;-89
2023/01/27 01:35:55;;;;;;;13.45;5.15;;;6.50;99.90;;;;;;5031453;28;20022;-89
2023/01/27 01:38:21;;;;;;;13.95;5.95;;;6.60;99.90;;;;;;5036683;28;20045;-89
2023/01/27 01:40:46;;;;;;;12.65;5.40;;;6.60;99.90;;;;;;5176715;22;20046;-86
2023/01/27 01:43:15;;;;;;;17.02;6.85;;;6.50;99.90;;;;;;4996868;28;20108;-87
2023/01/27 01:45:54;;;;;;;15.57;5.97;;;6.50;99.90;;;;;;5139675;22;20035;-89
2023/01/27 01:48:31;;;;;;;16.40;6.55;;;6.50;99.90;;;;;;5027126;28;20112;-89
2023/01/27 01:51:02;;;;;;;13.13;6.55;;;6.50;99.90;;;;;;5014896;28;20040;-88
2023/01/27 01:53:46;;;;;;;16.65;7.38;;;6.50;99.90;;;;;;5011413;28;20021;-88
2023/01/27 01:56:42;;;;;;;24.85;7.30;;;6.50;99.90;;;;;;4999774;28;20022;-85
2023/01/27 01:59:35;;;;;;;15.25;7.20;;;6.50;99.90;;;;;;4997250;28;20025;-84
2023/01/27 02:02:05;;;;;;;13.37;6.90;;;6.50;99.90;;;;;;5009945;28;20137;-84
2023/01/27 02:04:36;;;;;;;21.02;8.75;;;6.50;99.90;;;;;;5012405;28;20296;-88
2023/01/27 02:07:18;;;;;;;19.05;8.20;;;6.40;99.90;;;;;;5002842;28;20030;-87
2023/01/27 02:09:44;;;;;;;15.90;7.57;;;6.40;99.90;;;;;;5015955;28;20037;-88
2023/01/27 02:12:10;;;;;;;25.70;8.23;;;6.40;99.90;;;;;;5001409;28;20741;-88
2023/01/27 02:14:35;;;;;;;27.48;8.52;;;6.40;99.90;;;;;;5003602;28;20097;-88
2023/01/27 02:17:02;;;;;;;17.88;8.70;;;6.30;99.90;;;;;;5016649;28;20665;-90
2023/01/27 02:19:46;;;;;;;26.65;10.05;;;6.40;99.90;;;;;;5000330;28;20057;-90
2023/01/27 02:22:23;;;;;;;24.95;9.77;;;6.40;99.90;;;;;;4978576;28;20134;-90
2023/01/27 02:24:54;;;;;;;25.77;11.10;;;6.40;99.90;;;;;;5014023;28;20512;-90
2023/01/27 02:27:20;;;;;;;24.05;10.52;;;6.30;99.90;;;;;;5014054;28;20038;-90
2023/01/27 02:29:46;;;;;;;18.33;9.18;;;6.20;99.90;;;;;;4996298;28;20132;-88
2023/01/27 02:32:25;;;;;;;21.33;9.60;;;6.20;99.90;;;;;;4997990;28;20034;-91
2023/01/27 02:34:53;;;;;;;18.48;9.65;;;6.00;99.90;;;;;;5000418;28;20042;-87
2023/01/27 02:37:23;;;;;;;29.13;10.05;;;6.00;99.90;;;;;;5001225;28;20137;-87
2023/01/27 02:39:51;;;;;;;21.75;9.82;;;6.00;99.90;;;;;;5013002;28;20057;-88
2023/01/27 02:42:17;;;;;;;16.65;9.57;;;5.90;99.90;;;;;;4996319;28;20474;-89
2023/01/27 02:44:43;;;;;;;21.75;10.02;;;6.00;99.90;;;;;;5012202;28;20104;-88
2023/01/27 02:47:09;;;;;;;21.40;10.20;;;6.00;99.90;;;;;;5000550;28;20062;-88
2023/01/27 02:49:36;;;;;;;23.25;10.63;;;6.00;99.90;;;;;;5020645;28;20026;-90
2023/01/27 02:52:04;;;;;;;20.77;9.85;;;6.10;99.90;;;;;;5008733;28;20025;-90
2023/01/27 02:54:30;;;;;;;30.77;10.85;;;6.10;99.90;;;;;;4996387;28;20018;-89
2023/01/27 02:56:56;;;;;;;20.92;10.77;;;6.10;99.90;;;;;;5014201;28;20028;-89
2023/01/27 02:59:23;;;;;;;19.35;10.13;;;6.00;99.90;;;;;;4997469;28;20116;-90
2023/01/27 03:01:49;;;;;;;23.92;11.68;;;6.00;99.90;;;;;;4998353;28;20034;-89
2023/01/27 03:04:15;;;;;;;22.45;11.30;;;6.00;99.90;;;;;;5000974;28;20045;-89
2023/01/27 03:06:40;;;;;;;26.05;12.00;;;6.00;99.90;;;;;;4998107;28;20520;-89
2023/01/27 03:09:06;;;;;;;25.63;11.73;;;5.90;99.90;;;;;;5014989;28;20033;-89
2023/01/27 03:14:16;;;;;;;24.55;10.63;;;5.90;99.90;;;;;;5001761;28;20040;-90
2023/01/27 03:19:26;;;;;;;24.48;11.38;;;5.90;99.90;;;;;;4998083;28;20102;-89
2023/01/27 03:21:52;;;;;;;21.70;10.15;;;5.90;99.90;;;;;;4999616;28;20338;-90
2023/01/27 03:24:19;;;;;;;19.63;10.27;;;5.90;99.90;;;;;;5011483;28;20055;-89
2023/01/27 03:26:45;;;;;;;22.40;10.25;;;5.90;99.90;;;;;;5016547;28;20550;-90
2023/01/27 03:31:54;;;;;;;21.45;10.48;;;6.00;99.90;;;;;;4998537;28;20037;-90
2023/01/27 03:34:20;;;;;;;27.60;10.57;;;6.00;99.90;;;;;;5001086;28;20030;-89
2023/01/27 03:47:43;;;;;;;21.40;10.68;;;5.90;99.90;;;;;;4997607;28;20057;-89
2023/01/27 03:50:12;;;;;;;18.25;10.25;;;5.80;99.90;;;;;;4996111;28;20022;-89
2023/01/27 03:53:01;;;;;;;23.83;11.10;;;5.80;99.90;;;;;;5003472;28;20030;-88
2023/01/27 03:55:24;;;;;;;23.00;10.00;;;5.80;99.90;;;;;;4998844;28;20030;-89
2023/01/27 03:57:50;;;;;;;21.55;10.68;;;5.80;99.90;;;;;;5004193;28;20082;-89
2023/01/27 04:00:16;;;;;;;20.48;9.55;;;5.80;99.90;;;;;;5004670;28;20134;-89
2023/01/27 04:08:10;;;;;;;21.25;9.75;;;5.70;99.90;;;;;;4997954;28;20032;-88
2023/01/27 04:10:36;;;;;;;18.70;9.32;;;5.70;99.90;;;;;;4995651;28;20113;-89
2023/01/27 04:13:01;;;;;;;16.98;8.90;;;5.80;99.90;;;;;;5005185;28;20064;-89
2023/01/27 04:15:27;;;;;;;16.05;8.95;;;5.80;99.90;;;;;;5002843;28;20018;-89
2023/01/27 04:17:52;;;;;;;17.42;8.93;;;5.80;99.90;;;;;;5020624;28;20124;-90
2023/01/27 04:20:18;;;;;;;15.07;8.90;;;5.80;99.90;;;;;;5000934;28;20100;-89
2023/01/27 04:22:44;;;;;;;17.73;8.57;;;5.80;99.90;;;;;;5001229;28;20032;-89
2023/01/27 04:25:09;;;;;;;13.32;7.75;;;5.80;99.90;;;;;;5008820;28;20022;-90
2023/01/27 04:27:35;;;;;;;12.85;7.78;;;5.80;99.90;;;;;;5014905;28;20105;-89
2023/01/27 04:30:01;;;;;;;16.15;7.90;;;5.80;99.90;;;;;;5018942;28;20014;-89
2023/01/27 04:32:26;;;;;;;17.00;9.02;;;5.80;99.90;;;;;;4997527;28;20049;-89
2023/01/27 04:34:53;;;;;;;15.48;8.73;;;5.80;99.90;;;;;;4997572;28;20033;-88
2023/01/27 04:37:21;;;;;;;13.68;8.00;;;5.80;99.90;;;;;;4999442;28;20022;-89
2023/01/27 04:39:46;;;;;;;14.70;7.88;;;5.80;99.90;;;;;;5015814;28;20026;-89
2023/01/27 04:42:13;;;;;;;14.65;8.10;;;5.70;99.90;;;;;;5017982;28;20032;-89
2023/01/27 04:44:40;;;;;;;17.55;9.27;;;5.80;99.90;;;;;;5006643;28;20088;-88
2023/01/27 04:47:06;;;;;;;18.20;8.27;;;5.80;99.90;;;;;;5001430;28;20057;-89
2023/01/27 04:49:31;;;;;;;18.02;8.27;;;5.80;99.90;;;;;;5000609;28;20038;-89
2023/01/27 04:51:57;;;;;;;16.73;8.32;;;5.80;99.90;;;;;;5001436;28;20120;-89
2023/01/27 04:54:25;;;;;;;15.68;7.95;;;5.80;99.90;;;;;;5000571;28;20040;-89
2023/01/27 04:56:59;;;;;;;18.10;8.85;;;5.80;99.90;;;;;;5034030;28;20038;-89
2023/01/27 04:59:25;;;;;;;14.88;8.35;;;5.80;99.90;;;;;;5022735;28;20026;-89
2023/01/27 05:01:51;;;;;;;15.82;8.90;;;5.90;99.90;;;;;;5017940;28;20026;-89
2023/01/27 05:04:16;;;;;;;14.15;8.30;;;5.90;99.90;;;;;;5007489;28;20026;-89
2023/01/27 05:06:42;;;;;;;18.50;9.25;;;5.90;99.90;;;;;;5019432;28;20792;-88
2023/01/27 05:09:08;;;;;;;18.90;8.93;;;5.90;99.90;;;;;;4995912;28;20030;-89
2023/01/27 05:11:35;;;;;;;15.98;9.15;;;5.90;99.90;;;;;;5006401;28;20439;-89
2023/01/27 05:14:01;;;;;;;17.00;8.43;;;5.90;99.90;;;;;;5016368;28;20064;-89
2023/01/27 05:16:27;;;;;;;15.93;9.27;;;5.90;99.90;;;;;;5004875;28;20061;-89
2023/01/27 05:18:53;;;;;;;16.08;8.35;;;5.90;99.90;;;;;;5007587;28;20104;-91
2023/01/27 05:21:21;;;;;;;15.70;9.07;;;6.00;99.90;;;;;;5007951;28;20021;-90
2023/01/27 05:23:47;;;;;;;16.88;9.70;;;6.00;99.90;;;;;;5016922;28;20014;-90
2023/01/27 05:26:15;;;;;;;17.25;8.48;;;6.10;99.90;;;;;;5006422;28;20367;-89
2023/01/27 05:28:43;;;;;;;15.98;8.45;;;6.10;99.90;;;;;;5005804;28;20103;-88
2023/01/27 05:31:13;;;;;;;14.18;9.02;;;6.10;99.90;;;;;;5007163;28;20111;-88
2023/01/27 05:33:40;;;;;;;19.23;9.98;;;6.00;99.90;;;;;;5017029;28;20093;-88
2023/01/27 05:36:08;;;;;;;19.67;9.65;;;6.00;99.90;;;;;;5006295;28;20025;-89
2023/01/27 05:38:34;;;;;;;17.08;10.32;;;6.00;99.90;;;;;;5009288;28;20129;-89
2023/01/27 05:41:02;;;;;;;18.92;10.32;;;6.10;99.90;;;;;;5018800;28;20078;-89
2023/01/27 05:43:29;;;;;;;14.80;9.63;;;6.10;99.90;;;;;;5010531;28;20021;-89
2023/01/27 05:46:32;;;;;;;16.02;9.55;;;6.00;99.90;;;;;;5006272;28;20037;-88
2023/01/27 05:49:04;;;;;;;18.13;9.40;;;6.00;99.90;;;;;;4984001;28;20037;-88
2023/01/27 05:51:38;;;;;;;14.05;9.48;;;6.00;99.90;;;;;;5006001;28;20038;-89
2023/01/27 05:54:05;;;;;;;23.75;9.43;;;6.00;99.90;;;;;;4998341;28;20502;-88
2023/01/27 05:56:34;;;;;;;17.10;10.02;;;5.90;99.90;;;;;;5019842;28;20108;-89
2023/01/27 05:58:59;;;;;;;20.05;10.50;;;5.90;99.90;;;;;;5008725;28;20029;-88
2023/01/27 06:01:30;;;;;;;16.70;10.15;;;5.90;99.90;;;;;;4999816;28;20077;-88
2023/01/27 06:03:56;;;;;;;18.15;10.30;;;5.90;99.90;;;;;;5001910;28;20014;-88
2023/01/27 06:06:23;;;;;;;15.93;9.60;;;5.90;99.90;;;;;;5006906;28;20138;-88
2023/01/27 06:08:51;;;;;;;16.67;9.88;;;5.90;99.90;;;;;;5006697;28;20565;-90
2023/01/27 06:11:19;;;;;;;11.98;8.70;;;5.90;99.90;;;;;;5003922;28;20022;-88
2023/01/27 06:13:45;;;;;;;15.13;9.25;;;5.90;99.90;;;;;;5003638;28;20118;-89
2023/01/27 06:16:13;;;;;;;14.35;9.10;;;5.90;99.90;;;;;;5005223;28;20018;-89
2023/01/27 06:18:39;;;;;;;12.05;7.13;;;6.00;99.90;;;;;;5004771;28;20104;-89
2023/01/27 06:21:07;;;;;;;13.30;8.23;;;6.00;99.90;;;;;;5007230;28;20121;-88
2023/01/27 06:23:33;;;;;;;15.68;8.57;;;6.00;99.90;;;;;;5010292;28;20739;-89
2023/01/27 06:26:06;;;;;;;13.20;8.20;;;6.00;99.90;;;;;;5005206;28;20026;-88
2023/01/27 06:28:32;;;;;;;13.45;8.38;;;6.00;99.90;;;;;;5019193;28;20394;-88
2023/01/27 06:31:04;;;;;;;12.63;8.35;;;6.00;99.90;;;;;;5003534;28;20096;-89
2023/01/27 06:33:30;;;;;;;12.25;8.27;;;6.10;99.90;;;;;;5006367;28;20041;-90
2023/01/27 06:36:01;;;;;;;11.70;7.82;;;6.10;99.90;;;;;;5023820;28;20026;-87
2023/01/27 06:38:27;;;;;;;12.10;7.88;;;6.10;99.90;;;;;;5007813;28;20393;-88
2023/01/27 06:40:52;;;;;;;14.80;7.47;;;6.20;99.90;;;;;;5019779;28;20026;-87
2023/01/27 06:43:18;;;;;;;12.38;7.75;;;6.20;99.90;;;;;;5009526;28;20014;-88
2023/01/27 06:45:43;;;;;;;12.40;7.15;;;6.20;99.90;;;;;;4999813;28;20300;-88
2023/01/27 06:48:09;;;;;;;13.40;7.15;;;6.20;99.90;;;;;;5003575;28;20049;-88
2023/01/27 06:50:35;;;;;;;10.52;6.95;;;6.20;99.90;;;;;;5002107;28;20299;-88
2023/01/27 06:53:04;;;;;;;10.38;6.53;;;6.10;99.90;;;;;;5007159;28;20032;-88
2023/01/27 06:55:29;;;;;;;9.45;6.60;;;6.10;99.90;;;;;;5003421;28;20029;-88
2023/01/27 06:57:55;;;;;;;10.07;6.88;;;6.10;99.90;;;;;;5017169;28;20076;-87
2023/01/27 07:00:21;;;;;;;9.90;7.00;;;6.10;99.90;;;;;;5003611;28;20022;-88
2023/01/27 07:02:47;;;;;;;9.07;7.30;;;6.10;99.90;;;;;;5006383;28;20041;-88
2023/01/27 07:05:13;;;;;;;10.02;7.18;;;6.10;99.90;;;;;;5001823;28;20037;-88
2023/01/27 07:07:39;;;;;;;9.23;6.40;;;6.10;99.90;;;;;;5003204;28;20034;-88
2023/01/27 07:10:06;;;;;;;10.88;6.53;;;6.10;99.90;;;;;;5003587;28;20075;-88
2023/01/27 07:12:36;;;;;;;10.05;6.20;;;6.10;99.90;;;;;;5004571;28;20030;-89
2023/01/27 07:15:05;;;;;;;10.55;6.90;;;6.10;99.90;;;;;;5019119;28;20034;-88
2023/01/27 07:17:31;;;;;;;17.15;6.57;;;6.10;99.90;;;;;;5001423;28;20032;-88
2023/01/27 07:19:56;;;;;;;10.48;6.60;;;6.20;99.90;;;;;;4999344;28;20022;-88
2023/01/27 07:22:22;;;;;;;7.90;6.30;;;6.20;99.90;;;;;;5020467;28;20069;-88
2023/01/27 07:24:48;;;;;;;14.23;6.20;;;6.30;99.90;;;;;;5004009;28;20033;-88
2023/01/27 07:27:14;;;;;;;12.20;6.35;;;6.20;99.90;;;;;;5019637;28;20034;-88
2023/01/27 07:29:39;;;;;;;11.05;6.07;;;6.20;99.90;;;;;;5009204;28;20819;-88
2023/01/27 07:32:07;;;;;;;9.70;6.63;;;6.20;99.90;;;;;;5009042;28;20508;-88
2023/01/27 07:34:33;;;;;;;8.68;6.65;;;6.20;99.90;;;;;;5018590;28;20030;-87
2023/01/27 07:36:58;;;;;;;10.90;6.55;;;6.30;99.90;;;;;;5002019;28;20469;-88
2023/01/27 07:39:25;;;;;;;10.30;6.78;;;6.20;99.90;;;;;;5005546;28;20018;-88
2023/01/27 07:41:54;;;;;;;9.23;6.10;;;6.20;99.90;;;;;;5008585;28;20030;-88
2023/01/27 07:44:26;;;;;;;9.77;5.93;;;6.20;99.90;;;;;;5021066;28;20157;-88
2023/01/27 07:46:52;;;;;;;8.63;5.68;;;6.10;99.90;;;;;;5007263;28;20030;-88
2023/01/27 07:49:18;;;;;;;10.52;7.20;;;6.10;99.90;;;;;;4999536;28;20459;-84
2023/01/27 07:51:43;;;;;;;11.30;7.57;;;6.20;99.90;;;;;;5002229;28;20069;-84
2023/01/27 07:54:14;;;;;;;19.15;9.52;;;6.20;99.90;;;;;;4999159;28;20478;-85
2023/01/27 07:56:39;;;;;;;9.25;6.07;;;6.30;99.90;;;;;;5021837;28;20026;-88
2023/01/27 07:59:06;;;;;;;6.88;5.63;;;6.30;99.90;;;;;;5000769;28;20027;-87
2023/01/27 08:01:31;;;;;;;8.52;6.00;;;6.30;99.90;;;;;;5027641;28;20022;-86
2023/01/27 08:03:57;;;;;;;7.57;5.40;;;6.30;99.90;;;;;;5028147;28;20125;-88
2023/01/27 08:06:28;;;;;;;8.52;5.60;;;6.30;99.90;;;;;;5026301;28;20022;-87
2023/01/27 08:08:53;;;;;;;6.55;5.35;;;6.40;99.90;;;;;;5040823;28;20034;-88
2023/01/27 08:11:19;;;;;;;13.68;6.25;;;6.30;99.90;;;;;;5042405;28;20026;-88
2023/01/27 08:13:44;;;;;;;10.18;6.50;;;6.30;99.90;;;;;;5023349;28;20037;-88
2023/01/27 08:16:12;;;;;;;8.82;5.70;;;6.30;99.90;;;;;;5025053;28;20052;-88
2023/01/27 08:18:38;;;;;;;20.35;10.38;;;6.30;99.90;;;;;;5025360;28;20053;-84
2023/01/27 08:21:09;;;;;;;6.82;5.53;;;6.30;99.90;;;;;;5005655;28;20023;-88
2023/01/27 08:23:35;;;;;;;9.35;6.10;;;6.30;99.90;;;;;;5023477;28;20060;-89
2023/01/27 08:26:04;;;;;;;8.65;5.63;;;6.40;99.90;;;;;;5011030;28;20072;-89
2023/01/27 08:28:36;;;;;;;9.45;5.18;;;6.30;99.90;;;;;;5004217;28;20025;-86
2023/01/27 08:31:07;;;;;;;6.38;4.93;;;6.40;99.90;;;;;;5010455;28;20489;-86
2023/01/27 08:33:33;;;;;;;10.32;5.10;;;6.40;99.90;;;;;;5006559;28;20351;-86
2023/01/27 08:36:05;;;;;;;11.05;5.43;;;6.40;99.90;;;;;;5014673;28;20033;-87
2023/01/27 08:38:31;;;;;;;8.73;4.75;;;6.40;99.90;;;;;;5008469;28;20037;-87
2023/01/27 08:40:56;;;;;;;8.95;4.32;;;6.30;99.90;;;;;;5010065;28;20101;-87
2023/01/27 08:43:22;;;;;;;6.65;5.10;;;6.30;99.90;;;;;;5007858;28;20598;-87
2023/01/27 08:45:51;;;;;;;6.80;4.95;;;6.40;99.90;;;;;;5006443;28;20144;-87
2023/01/27 08:48:16;;;;;;;7.80;4.60;;;6.30;99.90;;;;;;5015493;28;20037;-86
2023/01/27 08:50:42;;;;;;;7.30;5.30;;;6.30;99.90;;;;;;5008294;28;20033;-89
2023/01/27 08:53:08;;;;;;;7.20;5.38;;;6.40;99.90;;;;;;5002717;28;20025;-88
2023/01/27 08:55:34;;;;;;;6.65;4.80;;;6.30;99.90;;;;;;5006483;28;20064;-88
2023/01/27 08:57:59;;;;;;;6.10;4.57;;;6.40;99.90;;;;;;5005878;28;20022;-88
2023/01/27 09:00:25;;;;;;;6.68;4.38;;;6.40;99.90;;;;;;5003220;28;20037;-89
2023/01/27 09:02:51;;;;;;;6.10;4.40;;;6.40;99.90;;;;;;5007027;28;20041;-89
2023/01/27 09:05:21;;;;;;;5.93;4.68;;;6.40;99.90;;;;;;5019258;28;20072;-88
2023/01/27 09:07:47;;;;;;;8.15;5.25;;;6.40;99.90;;;;;;5008352;28;20042;-88
2023/01/27 09:10:13;;;;;;;7.22;4.05;;;6.40;99.90;;;;;;5004747;28;20026;-88
2023/01/27 09:12:40;;;;;;;6.20;5.07;;;6.40;99.90;;;;;;5008409;28;20633;-88
2023/01/27 09:15:06;;;;;;;5.50;4.75;;;6.50;99.90;;;;;;5002977;28;20649;-88
2023/01/27 09:17:34;;;;;;;5.60;4.72;;;6.50;99.90;;;;;;5020551;28;20030;-88
2023/01/27 09:20:00;;;;;;;6.57;4.65;;;6.50;99.90;;;;;;5008368;28;20026;-88
2023/01/27 09:22:25;;;;;;;5.60;4.30;;;6.50;99.90;;;;;;5025021;28;20034;-88
2023/01/27 09:24:51;;;;;;;6.43;4.53;;;6.50;99.90;;;;;;5027692;28;20086;-87
2023/01/27 09:27:17;;;;;;;6.65;4.93;;;6.60;99.90;;;;;;5023683;28;20049;-87
2023/01/27 09:29:42;;;;;;;5.80;4.68;;;6.60;99.90;;;;;;5011488;28;20033;-88
2023/01/27 09:32:11;;;;;;;8.50;5.30;;;6.60;99.90;;;;;;5004891;28;20117;-88
2023/01/27 09:34:37;;;;;;;7.40;5.00;;;6.60;99.90;;;;;;5004957;28;20482;-87
2023/01/27 09:37:09;;;;;;;7.10;5.05;;;6.80;99.90;;;;;;5010985;28;20029;-88
2023/01/27 09:39:44;;;;;;;5.30;4.50;;;7.00;99.90;;;;;;5025870;28;20081;-88
2023/01/27 09:42:16;;;;;;;7.28;4.88;;;7.10;99.90;;;;;;5011517;28;20036;-88
2023/01/27 09:44:41;;;;;;;9.60;4.88;;;7.10;99.90;;;;;;5007622;28;20056;-88
2023/01/27 09:47:16;;;;;;;5.63;4.78;;;7.10;99.90;;;;;;5017566;28;20026;-88
2023/01/27 09:49:50;;;;;;;5.47;4.25;;;7.20;99.90;;;;;;5008007;28;20033;-88
2023/01/27 09:52:28;;;;;;;9.00;5.50;;;7.10;99.90;;;;;;5017692;28;20053;-88
2023/01/27 09:55:09;;;;;;;6.63;5.07;;;7.10;99.90;;;;;;5009233;28;20116;-88
2023/01/27 09:57:52;;;;;;;6.68;4.90;;;7.00;99.90;;;;;;5025369;28;20025;-88
2023/01/27 10:00:31;;;;;;;9.55;6.35;;;7.00;99.90;;;;;;5003293;28;20080;-85
2023/01/27 10:05:41;;;;;;;7.57;5.55;;;7.10;99.90;;;;;;4976715;26;20066;-83
2023/01/27 10:08:36;;;;;;;6.88;5.18;;;7.20;99.90;;;;;;4978962;28;20042;-84
2023/01/27 10:11:11;;;;;;;6.57;5.18;;;7.20;99.90;;;;;;4985774;28;20172;-85
2023/01/27 10:13:46;;;;;;;7.97;5.35;;;7.20;99.90;;;;;;5019082;28;20091;-84
2023/01/27 10:16:36;;;;;;;6.53;4.72;;;7.30;99.90;;;;;;4977719;28;21183;-84
2023/01/27 10:19:10;;;;;;;8.68;5.18;;;7.40;99.90;;;;;;4977468;28;20035;-82
2023/01/27 10:22:24;;;;;;;6.72;5.28;;;7.40;99.90;;;;;;4990089;28;20035;-83
2023/01/27 10:25:29;;;;;;;8.43;5.82;;;7.20;99.90;;;;;;4924557;28;20094;-84
2023/01/27 10:27:57;;;;;;;9.32;5.38;;;7.20;99.90;;;;;;4974009;28;20054;-85
2023/01/27 10:30:35;;;;;;;10.07;6.32;;;7.20;99.90;;;;;;4981574;28;20105;-83
2023/01/27 10:33:17;;;;;;;7.47;5.22;;;7.20;99.90;;;;;;4982993;28;20025;-82
2023/01/27 10:35:53;;;;;;;8.88;5.43;;;7.20;99.90;;;;;;4974589;28;20128;-84
2023/01/27 10:38:25;;;;;;;7.13;5.57;;;7.20;99.90;;;;;;4979425;28;20093;-84
2023/01/27 10:41:08;;;;;;;;;;;7.30;99.90;;;;;;4980081;28;20031;-83
2023/01/27 10:43:36;;;;;;;7.38;4.82;;;7.20;99.90;;;;;;5008787;28;20355;-84
2023/01/27 10:46:14;;;;;;;7.68;4.88;;;7.20;99.90;;;;;;4980725;28;20023;-85
2023/01/27 10:49:27;;;;;;;8.40;5.50;;;7.00;99.90;;;;;;4980572;28;20058;-84
2023/01/27 10:52:08;;;;;;;14.18;6.07;;;7.00;99.90;;;;;;4992479;28;20054;-83
2023/01/27 10:54:44;;;;;;;6.88;5.15;;;7.00;99.90;;;;;;4985494;28;20426;-84
2023/01/27 10:57:29;;;;;;;7.07;5.60;;;7.10;99.90;;;;;;4991748;28;20102;-83
2023/01/27 10:59:55;;;;;;;8.70;5.55;;;7.20;99.90;;;;;;4988273;28;20091;-83
2023/01/27 11:02:42;;;;;;;8.13;5.50;;;7.30;99.90;;;;;;4989997;28;20108;-83
2023/01/27 11:05:15;;;;;;;9.10;5.88;;;7.30;99.90;;;;;;4990332;28;20030;-85
2023/01/27 11:07:51;;;;;;;7.10;5.03;;;7.30;99.90;;;;;;4990725;28;20038;-84
2023/01/27 11:10:19;;;;;;;6.28;5.22;;;7.30;99.90;;;;;;5008721;28;20027;-82
2023/01/27 11:12:51;;;;;;;8.40;5.65;;;7.30;99.90;;;;;;4996165;28;20461;-84
2023/01/27 11:15:32;;;;;;;8.70;5.78;;;7.30;99.90;;;;;;4979515;28;20053;-85
2023/01/27 11:18:24;;;;;;;7.32;5.57;;;7.30;99.90;;;;;;4987039;28;20458;-84
2023/01/27 11:20:53;;;;;;;10.13;5.88;;;7.40;99.90;;;;;;4987037;28;20463;-85
2023/01/27 11:23:25;;;;;;;6.72;5.43;;;7.50;99.90;;;;;;4978924;28;20474;-84
2023/01/27 11:25:57;;;;;;;8.63;5.55;;;7.50;99.90;;;;;;4975563;28;20041;-85
2023/01/27 11:28:49;;;;;;;5.20;4.60;;;7.50;99.90;;;;;;4978648;28;20034;-84
2023/01/27 11:31:53;;;;;;;8.75;5.30;;;7.50;99.90;;;;;;4982361;28;20030;-85
2023/01/27 11:34:38;;;;;;;7.25;4.32;;;7.50;99.90;;;;;;4968414;28;20034;-84
2023/01/27 11:37:15;;;;;;;6.65;5.40;;;7.50;99.90;;;;;;4995106;28;20036;-84
2023/01/27 11:39:41;;;;;;;5.35;4.85;;;7.50;99.90;;;;;;4987396;28;20049;-84
2023/01/27 11:42:09;;;;;;;6.00;4.97;;;7.50;99.90;;;;;;4982456;28;20031;-88
2023/01/27 11:44:35;;;;;;;7.35;5.35;;;7.40;99.90;;;;;;4999682;28;20018;-88
2023/01/27 11:47:04;;;;;;;6.53;5.63;;;7.40;99.90;;;;;;4997030;28;20050;-89
2023/01/27 11:49:35;;;;;;;6.90;5.07;;;7.40;99.90;;;;;;4993613;28;20046;-89
2023/01/27 11:52:09;;;;;;;5.18;4.57;;;7.40;99.90;;;;;;4999436;28;20030;-89
2023/01/27 11:54:52;;;;;;;4.97;4.47;;;7.40;99.90;;;;;;4986513;28;20027;-89
2023/01/27 11:57:21;;;;;;;6.20;4.80;;;7.40;99.90;;;;;;4977057;28;20023;-88
2023/01/27 11:59:53;;;;;;;8.52;4.97;;;7.40;99.90;;;;;;4988380;28;20427;-88
2023/01/27 12:02:25;;;;;;;5.72;4.90;;;7.50;99.90;;;;;;4993090;28;20030;-88
2023/01/27 12:05:03;;;;;;;5.67;4.90;;;7.40;99.90;;;;;;4992183;28;20046;-88
2023/01/27 12:07:44;;;;;;;10.27;4.60;;;7.50;99.90;;;;;;4989329;28;20321;-88
2023/01/27 12:10:32;;;;;;;5.03;4.13;;;7.50;99.90;;;;;;4999868;28;20054;-88
2023/01/27 12:13:15;;;;;;;4.70;4.30;;;7.50;99.90;;;;;;5000144;28;20080;-88
2023/01/27 12:15:53;;;;;;;4.22;3.83;;;7.50;99.90;;;;;;4997428;28;20037;-87
2023/01/27 12:18:19;;;;;;;5.03;4.15;;;7.50;99.90;;;;;;4976010;28;20036;-83
2023/01/27 12:20:47;;;;;;;6.43;4.05;;;7.60;99.90;;;;;;4972982;28;20038;-84
2023/01/27 12:23:35;;;;;;;3.58;3.25;;;7.60;99.90;;;;;;4964880;28;20023;-84
2023/01/27 12:26:04;;;;;;;3.50;3.20;;;7.70;99.90;;;;;;4980850;28;20049;-87
2023/01/27 12:28:32;;;;;;;3.60;3.22;;;7.70;99.90;;;;;;4978434;28;20162;-84
2023/01/27 12:31:08;;;;;;;8.50;4.25;;;7.70;99.90;;;;;;4977130;28;20038;-80
2023/01/27 12:33:39;;;;;;;3.90;3.50;;;7.70;99.90;;;;;;4982540;28;20066;-83
2023/01/27 12:36:26;;;;;;;4.28;2.97;;;7.70;99.90;;;;;;4974287;28;20092;-88
2023/01/27 12:38:55;;;;;;;5.10;3.42;;;7.60;99.90;;;;;;4974813;28;20337;-88
2023/01/27 12:41:26;;;;;;;4.78;3.78;;;7.50;99.90;;;;;;4983689;28;20027;-88
2023/01/27 12:44:06;;;;;;;4.85;4.07;;;7.70;99.90;;;;;;4988309;28;20456;-89
2023/01/27 12:46:32;;;;;;;8.52;4.53;;;7.60;99.90;;;;;;4982002;28;20082;-89
2023/01/27 12:49:10;;;;;;;4.35;3.95;;;7.70;99.90;;;;;;4987190;28;20030;-88
2023/01/27 12:51:49;;;;;;;6.82;4.85;;;7.80;99.90;;;;;;4991682;28;20033;-88
2023/01/27 12:54:26;;;;;;;6.43;3.85;;;7.80;99.90;;;;;;4991313;28;20041;-88
2023/01/27 12:56:54;;;;;;;7.28;4.53;;;7.90;99.90;;;;;;4984936;28;20038;-83
2023/01/27 12:59:22;;;;;;;5.72;4.00;;;7.90;99.90;;;;;;4984832;28;20015;-84
2023/01/27 13:02:35;;;;;;;6.72;4.32;;;7.90;99.90;;;;;;4986027;28;20025;-85
2023/01/27 13:05:07;;;;;;;4.10;3.70;;;7.90;99.90;;;;;;5003692;28;20097;-85
2023/01/27 13:07:49;;;;;;;3.45;3.15;;;7.80;99.90;;;;;;5017120;28;20030;-85
2023/01/27 13:10:26;;;;;;;3.75;3.25;;;7.70;99.90;;;;;;5008104;28;20042;-86
2023/01/27 13:12:58;;;;;;;4.90;3.08;;;7.70;99.90;;;;;;5004475;28;20071;-87
2023/01/27 13:15:32;;;;;;;3.05;2.78;;;7.70;99.90;;;;;;5005800;28;20050;-89
2023/01/27 13:18:10;;;;;;;4.65;3.03;;;7.70;99.90;;;;;;5006903;28;20094;-88
2023/01/27 13:20:44;;;;;;;3.20;2.60;;;7.70;99.90;;;;;;4998462;28;20023;-89
2023/01/27 13:23:31;;;;;;;5.30;2.25;;;7.60;99.90;;;;;;5001204;28;20090;-89
2023/01/27 13:26:03;;;;;;;2.92;2.20;;;7.70;99.90;;;;;;4994638;28;20569;-90
2023/01/27 13:28:46;;;;;;;6.15;3.05;;;7.60;99.90;;;;;;5015573;28;20081;-89
2023/01/27 13:31:35;;;;;;;3.10;2.80;;;7.70;99.90;;;;;;5002200;28;20112;-89
2023/01/27 13:34:17;;;;;;;4.10;3.10;;;7.60;99.90;;;;;;5091840;22;20230;-89
2023/01/27 13:36:56;;;;;;;3.40;3.10;;;7.60;99.90;;;;;;4976953;28;20045;-88
2023/01/27 13:39:52;;;;;;;2.90;2.67;;;7.60;99.90;;;;;;5055576;23;20109;-90
2023/01/27 13:42:36;;;;;;;4.35;2.85;;;7.60;99.90;;;;;;4982002;28;20527;-85
2023/01/27 13:45:04;;;;;;;5.90;3.05;;;7.60;99.90;;;;;;4973162;28;20026;-80